Date,TemperatureHighF,TemperatureAvgF,TemperatureLowF,DewpointHighF,DewpointAvgF,DewpointLowF,HumidityHigh,HumidityAvg,HumidityLow,PressureMaxIn,PressureMinIn,WindSpeedMaxMPH,WindSpeedAvgMPH,GustSpeedMaxMPH,PrecipitationSumIn
2013-8-1,84.0,75.1,69.0,76.0,72.1,69.0,100,92,70,29.60,29.47,7,3,33,0.58
2013-8-2,91.0,76.8,65.0,76.0,69.3,65.0,100,81,49,29.62,29.51,6,3,15,2.05
2013-8-3,90.0,76.6,68.0,78.0,72.9,68.0,100,90,63,29.61,29.51,9,4,18,0.01
2013-8-4,86.0,75.0,66.0,74.0,68.4,63.0,100,83,49,29.62,29.49,8,3,24,0.00
2013-8-5,85.0,72.6,62.0,72.0,65.4,62.0,100,81,50,29.69,29.60,6,2,16,0.00
2013-8-6,82.0,73.3,65.0,71.0,67.9,65.0,100,85,64,29.66,29.60,8,3,19,0.31
2013-8-7,85.0,75.2,65.0,74.0,70.2,65.0,100,86,60,29.69,29.62,7,3,50,0.01
2013-8-8,88.0,77.6,68.0,76.0,73.0,68.0,100,88,62,29.67,29.60,5,2,13,0.00
2013-8-9,91.0,79.6,71.0,78.0,74.7,71.0,100,86,65,29.65,29.59,9,4,21,0.00
2013-8-10,94.0,79.3,72.0,79.0,75.3,72.0,100,90,59,29.69,29.62,7,4,30,0.42
2013-8-11,96.0,79.8,70.0,77.0,73.7,70.0,100,85,51,29.70,29.62,9,3,42,0.08
2013-8-12,93.0,79.8,70.0,79.0,73.4,69.0,100,84,46,29.65,29.54,5,2,92,0.08
2013-8-13,90.0,76.2,70.0,78.0,72.1,-99.9,100,91,63,29.56,29.39,8,4,30,0.65
2013-8-14,78.0,70.1,60.0,72.0,65.1,-99.9,100,88,65,29.67,29.42,7,3,57,0.01
2013-8-15,79.0,61.6,57.0,64.0,53.5,-99.9,100,84,47,29.75,29.67,28,4,49,0.00
2013-8-16,71.0,62.4,57.0,64.0,56.3,-99.9,100,87,71,29.77,29.69,4,3,11,0.00
2013-8-17,71.0,65.1,59.0,71.0,65.1,59.0,100,100,97,29.77,29.71,25,5,50,0.36
2013-8-18,79.0,70.4,66.0,71.0,66.6,-99.9,100,91,71,29.79,29.71,28,5,64,0.28
2013-8-19,76.0,66.3,64.0,75.0,62.9,-99.9,100,98,89,29.79,29.70,11,3,64,0.36
2013-8-20,86.0,72.8,63.0,76.0,69.2,63.0,100,90,62,29.78,29.71,3,2,8,0.02
2013-8-21,88.0,74.4,69.0,79.0,72.9,69.0,100,96,65,29.82,29.70,7,2,18,0.51
2013-8-22,91.0,77.4,68.0,76.0,72.1,68.0,100,86,53,29.76,29.60,6,3,14,0.10
2013-8-23,86.0,76.2,68.0,77.0,71.6,68.0,100,87,63,29.67,29.53,7,4,78,0.00
2013-8-24,84.0,71.7,62.0,68.0,63.6,59.0,100,79,45,29.88,29.67,8,5,43,0.00
2013-8-25,81.0,67.3,57.0,65.0,58.9,-99.9,100,80,47,29.98,29.88,7,3,16,0.00
2013-8-26,86.0,67.8,52.0,65.0,59.3,52.0,100,79,41,29.91,29.71,4,2,11,0.00
2013-8-27,92.0,71.7,60.0,73.0,65.3,60.0,100,83,49,29.72,29.58,5,3,14,0.00
2013-8-28,83.0,79.1,75.0,80.0,77.0,73.0,100,94,73,29.58,29.48,4,2,9,0.00
2013-8-29,87.0,78.6,70.0,76.0,73.7,70.0,100,86,63,29.61,29.45,8,4,18,0.00
2013-8-30,89.0,75.2,65.0,73.0,67.9,62.0,100,82,41,29.66,29.54,4,2,10,0.00
2013-8-31,88.0,75.6,64.0,76.0,71.0,64.0,100,88,62,29.57,29.47,7,3,16,0.00